LGKZ/KZI METAR and TAF weather

Enter ICAO airport designator
Station Type Date Time Source
LGKZ METAR 2019/02/17 11:50 UTC NOAA

LGKZ 171150Z 12007KT CAVOK 12/M03 Q1026


Station Type Date Time Source
LGKZ Decoded METAR 2019/02/17 11:50 UTC NOAA

Kozani Airport , Greece (LGKZ) 40-18N 021-47E 627M
Feb 17, 2019 - 06:50 AM EST / 2019.02.17 1150 UTC
Wind: from the ESE (120 degrees) at 8 MPH (7 KT):0
Visibility: greater than 7 mile(s):0
Temperature: 53 F (12 C)
Dew Point: 26 F (-3 C)
Relative Humidity: 34%
Pressure (altimeter): 30.30 in. Hg (1026 hPa)
ob: LGKZ 171150Z 12007KT CAVOK 12/M03 Q1026
cycle: 12

Station Type Date Time Source
LGKZ TAF UTC NOAA

Error!


Example: see airport list